Weather at Nymburk Ul Ploch Airport

Public forecast

Using degrees Celsius for public forecast. Weather courtesy of forecast.io.

Closest aviation weather report (METAR) to Nymburk Ul Ploch Airport

Closest report is Čáslav Air Base, 18.7 nm (34.6 km) SE. Retrieved 2020/11/25 06:30 UTC (23 minutes ago):

LKCV 250630Z 15009KT 9999 OVC013 01/M02 Q1024 NOSIG RMK GRN GRN

Closest aviation forecast (TAF) to Nymburk Ul Ploch Airport

Closest forecast is Čáslav Air Base, 18.7 nm (34.6 km) SE. Retrieved 2020/11/25 06:00 UTC (53 minutes ago):

TAF LKCV 250500Z 2506/2606 15008KT 9999 BKN012 BECMG 2509/2511 BKN016 TEMPO 2511/2518 15012KT CAVOK BECMG 2518/2520 9999 BKN012 PROB40 TEMPO 2521/2606 4000 BR BKN006